sensor_id;sensor_type;location;lat;lon;timestamp;pressure;altitude;pressure_sealevel;temperature;humidity
36190;BME280;22232;50.914;13.858;2023-03-26T00:01:50;96722.97;;;6.66;100.00
36190;BME280;22232;50.914;13.858;2023-03-26T00:04:17;96731.81;;;6.72;100.00
36190;BME280;22232;50.914;13.858;2023-03-26T00:06:46;96733.53;;;6.78;100.00
36190;BME280;22232;50.914;13.858;2023-03-26T00:09:16;96732.25;;;6.81;100.00
36190;BME280;22232;50.914;13.858;2023-03-26T00:11:44;96725.47;;;6.85;100.00
36190;BME280;22232;50.914;13.858;2023-03-26T00:14:14;96733.75;;;6.88;100.00
36190;BME280;22232;50.914;13.858;2023-03-26T00:16:44;96737.34;;;6.82;100.00
36190;BME280;22232;50.914;13.858;2023-03-26T00:19:14;96743.56;;;6.76;100.00
36190;BME280;22232;50.914;13.858;2023-03-26T00:21:41;96739.19;;;6.82;100.00
36190;BME280;22232;50.914;13.858;2023-03-26T00:24:11;96738.13;;;6.83;100.00
36190;BME280;22232;50.914;13.858;2023-03-26T00:26:43;96731.56;;;6.85;100.00
36190;BME280;22232;50.914;13.858;2023-03-26T00:29:12;96737.22;;;6.89;100.00
36190;BME280;22232;50.914;13.858;2023-03-26T00:31:40;96747.34;;;6.92;100.00
36190;BME280;22232;50.914;13.858;2023-03-26T00:34:13;96739.50;;;6.97;100.00
36190;BME280;22232;50.914;13.858;2023-03-26T00:36:45;96743.97;;;6.97;100.00
36190;BME280;22232;50.914;13.858;2023-03-26T00:39:13;96751.59;;;6.93;100.00
36190;BME280;22232;50.914;13.858;2023-03-26T00:41:41;96747.91;;;6.94;100.00
36190;BME280;22232;50.914;13.858;2023-03-26T00:44:10;96755.28;;;6.92;100.00
36190;BME280;22232;50.914;13.858;2023-03-26T00:46:38;96760.94;;;6.84;100.00
36190;BME280;22232;50.914;13.858;2023-03-26T00:49:05;96757.81;;;6.87;100.00
36190;BME280;22232;50.914;13.858;2023-03-26T00:51:37;96751.06;;;6.79;100.00
36190;BME280;22232;50.914;13.858;2023-03-26T00:54:08;96748.88;;;6.76;100.00
36190;BME280;22232;50.914;13.858;2023-03-26T00:56:35;96737.81;;;6.79;100.00
36190;BME280;22232;50.914;13.858;2023-03-26T00:59:05;96731.59;;;6.74;100.00
36190;BME280;22232;50.914;13.858;2023-03-26T01:01:32;96741.59;;;6.72;100.00
36190;BME280;22232;50.914;13.858;2023-03-26T01:04:25;96740.13;;;6.64;100.00
36190;BME280;22232;50.914;13.858;2023-03-26T01:07:00;96738.72;;;6.50;100.00
36190;BME280;22232;50.914;13.858;2023-03-26T01:09:33;96728.13;;;6.50;100.00
36190;BME280;22232;50.914;13.858;2023-03-26T01:12:02;96723.88;;;6.49;100.00
36190;BME280;22232;50.914;13.858;2023-03-26T01:14:31;96722.84;;;6.50;100.00
36190;BME280;22232;50.914;13.858;2023-03-26T01:17:00;96719.28;;;6.44;100.00
36190;BME280;22232;50.914;13.858;2023-03-26T01:19:48;96722.97;;;6.43;100.00
36190;BME280;22232;50.914;13.858;2023-03-26T01:22:20;96718.13;;;6.40;100.00
36190;BME280;22232;50.914;13.858;2023-03-26T01:24:49;96729.97;;;6.37;100.00
36190;BME280;22232;50.914;13.858;2023-03-26T01:27:30;96731.94;;;6.42;100.00
36190;BME280;22232;50.914;13.858;2023-03-26T01:43:31;96726.88;;;6.76;100.00
36190;BME280;22232;50.914;13.858;2023-03-26T01:46:05;96735.38;;;6.78;100.00
36190;BME280;22232;50.914;13.858;2023-03-26T01:48:45;96727.78;;;6.70;100.00
36190;BME280;22232;50.914;13.858;2023-03-26T01:51:24;96719.47;;;6.66;100.00
36190;BME280;22232;50.914;13.858;2023-03-26T01:53:52;96730.19;;;6.71;100.00
36190;BME280;22232;50.914;13.858;2023-03-26T02:02:09;96737.88;;;6.84;100.00
36190;BME280;22232;50.914;13.858;2023-03-26T02:07:53;96729.41;;;6.71;100.00
36190;BME280;22232;50.914;13.858;2023-03-26T02:10:27;96717.53;;;6.61;100.00
36190;BME280;22232;50.914;13.858;2023-03-26T02:12:57;96722.72;;;6.56;100.00
36190;BME280;22232;50.914;13.858;2023-03-26T02:15:25;96722.50;;;6.58;100.00
36190;BME280;22232;50.914;13.858;2023-03-26T02:17:52;96722.03;;;6.49;100.00
36190;BME280;22232;50.914;13.858;2023-03-26T02:20:27;96720.91;;;6.33;100.00
36190;BME280;22232;50.914;13.858;2023-03-26T02:22:56;96739.19;;;6.35;100.00
36190;BME280;22232;50.914;13.858;2023-03-26T02:25:24;96742.88;;;6.34;100.00
36190;BME280;22232;50.914;13.858;2023-03-26T02:27:52;96743.44;;;6.36;100.00
36190;BME280;22232;50.914;13.858;2023-03-26T02:30:23;96737.59;;;6.34;100.00
36190;BME280;22232;50.914;13.858;2023-03-26T02:32:58;96740.78;;;6.36;100.00
36190;BME280;22232;50.914;13.858;2023-03-26T02:35:34;96741.16;;;6.39;100.00
36190;BME280;22232;50.914;13.858;2023-03-26T02:38:02;96745.63;;;6.39;100.00
36190;BME280;22232;50.914;13.858;2023-03-26T02:40:30;96742.88;;;6.46;100.00
36190;BME280;22232;50.914;13.858;2023-03-26T02:42:58;96744.03;;;6.50;100.00
36190;BME280;22232;50.914;13.858;2023-03-26T02:45:31;96731.38;;;6.52;100.00
36190;BME280;22232;50.914;13.858;2023-03-26T02:48:04;96746.00;;;6.54;100.00
36190;BME280;22232;50.914;13.858;2023-03-26T02:50:45;96735.03;;;6.51;100.00
36190;BME280;22232;50.914;13.858;2023-03-26T02:53:23;96751.31;;;6.54;100.00
36190;BME280;22232;50.914;13.858;2023-03-26T02:56:15;96731.59;;;6.50;100.00
36190;BME280;22232;50.914;13.858;2023-03-26T02:58:57;96743.00;;;6.51;100.00
36190;BME280;22232;50.914;13.858;2023-03-26T03:01:24;96740.34;;;6.51;100.00
36190;BME280;22232;50.914;13.858;2023-03-26T03:03:54;96733.31;;;6.56;100.00
36190;BME280;22232;50.914;13.858;2023-03-26T03:06:35;96731.94;;;6.54;100.00
36190;BME280;22232;50.914;13.858;2023-03-26T03:09:05;96739.53;;;6.50;100.00
36190;BME280;22232;50.914;13.858;2023-03-26T03:11:35;96747.28;;;6.52;100.00
36190;BME280;22232;50.914;13.858;2023-03-26T03:14:04;96739.31;;;6.52;100.00
36190;BME280;22232;50.914;13.858;2023-03-26T03:16:33;96736.53;;;6.47;100.00
36190;BME280;22232;50.914;13.858;2023-03-26T03:19:09;96728.13;;;6.50;100.00
36190;BME280;22232;50.914;13.858;2023-03-26T03:21:38;96737.34;;;6.47;100.00
36190;BME280;22232;50.914;13.858;2023-03-26T03:24:08;96743.78;;;6.51;100.00
36190;BME280;22232;50.914;13.858;2023-03-26T03:26:40;96738.06;;;6.54;100.00
36190;BME280;22232;50.914;13.858;2023-03-26T03:29:27;96744.03;;;6.50;100.00
36190;BME280;22232;50.914;13.858;2023-03-26T03:31:56;96744.50;;;6.47;100.00
36190;BME280;22232;50.914;13.858;2023-03-26T03:34:41;96744.63;;;6.40;100.00
36190;BME280;22232;50.914;13.858;2023-03-26T03:37:09;96742.63;;;6.24;100.00
36190;BME280;22232;50.914;13.858;2023-03-26T03:39:49;96747.03;;;6.18;100.00
36190;BME280;22232;50.914;13.858;2023-03-26T03:42:20;96746.31;;;6.11;100.00
36190;BME280;22232;50.914;13.858;2023-03-26T03:44:50;96748.38;;;6.09;100.00
36190;BME280;22232;50.914;13.858;2023-03-26T03:47:38;96745.75;;;6.09;100.00
36190;BME280;22232;50.914;13.858;2023-03-26T03:50:08;96751.69;;;6.04;100.00
36190;BME280;22232;50.914;13.858;2023-03-26T03:52:38;96744.44;;;6.11;100.00
36190;BME280;22232;50.914;13.858;2023-03-26T03:55:06;96748.38;;;6.09;100.00
36190;BME280;22232;50.914;13.858;2023-03-26T03:57:41;96738.69;;;6.14;100.00
36190;BME280;22232;50.914;13.858;2023-03-26T04:00:14;96739.53;;;6.27;100.00
36190;BME280;22232;50.914;13.858;2023-03-26T04:02:42;96736.88;;;6.27;100.00
36190;BME280;22232;50.914;13.858;2023-03-26T04:05:14;96729.75;;;6.27;100.00
36190;BME280;22232;50.914;13.858;2023-03-26T04:07:47;96731.69;;;6.20;100.00
36190;BME280;22232;50.914;13.858;2023-03-26T04:10:21;96733.09;;;6.23;100.00
36190;BME280;22232;50.914;13.858;2023-03-26T04:13:24;96736.88;;;6.15;100.00
36190;BME280;22232;50.914;13.858;2023-03-26T04:16:10;96740.09;;;6.17;100.00
36190;BME280;22232;50.914;13.858;2023-03-26T04:18:38;96735.25;;;6.14;100.00
36190;BME280;22232;50.914;13.858;2023-03-26T04:21:12;96734.09;;;6.10;100.00
36190;BME280;22232;50.914;13.858;2023-03-26T04:23:44;96738.16;;;6.12;100.00
36190;BME280;22232;50.914;13.858;2023-03-26T04:26:32;96730.88;;;6.19;100.00
36190;BME280;22232;50.914;13.858;2023-03-26T04:29:09;96730.75;;;6.14;100.00
36190;BME280;22232;50.914;13.858;2023-03-26T04:31:39;96732.50;;;6.20;100.00
36190;BME280;22232;50.914;13.858;2023-03-26T04:34:22;96724.94;;;6.24;100.00
36190;BME280;22232;50.914;13.858;2023-03-26T04:37:21;96728.72;;;6.28;100.00
36190;BME280;22232;50.914;13.858;2023-03-26T04:40:10;96731.13;;;6.30;100.00
36190;BME280;22232;50.914;13.858;2023-03-26T04:42:48;96730.91;;;6.31;100.00
36190;BME280;22232;50.914;13.858;2023-03-26T04:45:39;96724.91;;;6.36;100.00
36190;BME280;22232;50.914;13.858;2023-03-26T04:48:07;96732.50;;;6.32;100.00
36190;BME280;22232;50.914;13.858;2023-03-26T04:50:41;96735.75;;;6.34;100.00
36190;BME280;22232;50.914;13.858;2023-03-26T04:53:15;96725.94;;;6.35;100.00
36190;BME280;22232;50.914;13.858;2023-03-26T04:56:55;96729.88;;;6.44;100.00
36190;BME280;22232;50.914;13.858;2023-03-26T04:59:41;96717.19;;;6.46;100.00
36190;BME280;22232;50.914;13.858;2023-03-26T05:02:12;96718.81;;;6.47;100.00
36190;BME280;22232;50.914;13.858;2023-03-26T05:04:52;96715.81;;;6.43;100.00
36190;BME280;22232;50.914;13.858;2023-03-26T05:07:21;96714.78;;;6.44;100.00
36190;BME280;22232;50.914;13.858;2023-03-26T05:09:55;96716.03;;;6.42;100.00
36190;BME280;22232;50.914;13.858;2023-03-26T05:12:40;96711.44;;;6.37;100.00
36190;BME280;22232;50.914;13.858;2023-03-26T05:15:13;96715.47;;;6.40;100.00
36190;BME280;22232;50.914;13.858;2023-03-26T05:17:50;96714.56;;;6.34;100.00
36190;BME280;22232;50.914;13.858;2023-03-26T05:20:28;96721.34;;;6.30;100.00
36190;BME280;22232;50.914;13.858;2023-03-26T05:22:56;96715.34;;;6.35;100.00
36190;BME280;22232;50.914;13.858;2023-03-26T05:25:35;96721.09;;;6.32;100.00
36190;BME280;22232;50.914;13.858;2023-03-26T05:28:10;96720.44;;;6.25;100.00
36190;BME280;22232;50.914;13.858;2023-03-26T05:30:46;96729.75;;;6.27;100.00
36190;BME280;22232;50.914;13.858;2023-03-26T05:33:14;96729.31;;;6.30;100.00
36190;BME280;22232;50.914;13.858;2023-03-26T05:38:32;96732.75;;;6.42;100.00
36190;BME280;22232;50.914;13.858;2023-03-26T05:41:04;96737.00;;;6.43;100.00
36190;BME280;22232;50.914;13.858;2023-03-26T05:43:34;96732.63;;;6.37;100.00
36190;BME280;22232;50.914;13.858;2023-03-26T05:46:11;96734.94;;;6.34;100.00
36190;BME280;22232;50.914;13.858;2023-03-26T05:48:39;96737.59;;;6.34;100.00
36190;BME280;22232;50.914;13.858;2023-03-26T05:51:07;96740.69;;;6.31;100.00
36190;BME280;22232;50.914;13.858;2023-03-26T05:53:40;96740.25;;;6.34;100.00
36190;BME280;22232;50.914;13.858;2023-03-26T05:56:08;96741.50;;;6.43;100.00
36190;BME280;22232;50.914;13.858;2023-03-26T05:58:55;96748.28;;;6.51;100.00
36190;BME280;22232;50.914;13.858;2023-03-26T06:01:41;96747.34;;;6.69;100.00
36190;BME280;22232;50.914;13.858;2023-03-26T06:04:11;96744.94;;;6.79;100.00
36190;BME280;22232;50.914;13.858;2023-03-26T06:06:46;96747.47;;;6.85;100.00
36190;BME280;22232;50.914;13.858;2023-03-26T06:09:14;96736.75;;;6.92;100.00
36190;BME280;22232;50.914;13.858;2023-03-26T06:11:42;96745.03;;;6.96;100.00
36190;BME280;22232;50.914;13.858;2023-03-26T06:14:09;96743.94;;;7.08;100.00
36190;BME280;22232;50.914;13.858;2023-03-26T06:16:43;96748.31;;;7.15;100.00
36190;BME280;22232;50.914;13.858;2023-03-26T06:19:20;96751.66;;;7.22;100.00
36190;BME280;22232;50.914;13.858;2023-03-26T06:21:56;96742.84;;;7.33;100.00
36190;BME280;22232;50.914;13.858;2023-03-26T06:24:43;96742.47;;;7.41;100.00
36190;BME280;22232;50.914;13.858;2023-03-26T06:27:30;96739.25;;;7.39;100.00
36190;BME280;22232;50.914;13.858;2023-03-26T06:30:25;96734.59;;;7.58;100.00
36190;BME280;22232;50.914;13.858;2023-03-26T06:33:05;96732.19;;;7.73;100.00
36190;BME280;22232;50.914;13.858;2023-03-26T06:35:39;96734.78;;;7.85;100.00
36190;BME280;22232;50.914;13.858;2023-03-26T06:38:09;96733.84;;;7.91;100.00
36190;BME280;22232;50.914;13.858;2023-03-26T06:40:37;96722.25;;;7.97;100.00
36190;BME280;22232;50.914;13.858;2023-03-26T06:43:18;96724.97;;;8.02;100.00
36190;BME280;22232;50.914;13.858;2023-03-26T06:45:50;96730.28;;;8.02;100.00
36190;BME280;22232;50.914;13.858;2023-03-26T06:48:50;96735.13;;;8.05;100.00
36190;BME280;22232;50.914;13.858;2023-03-26T06:51:21;96729.16;;;7.98;100.00
36190;BME280;22232;50.914;13.858;2023-03-26T06:54:14;96733.69;;;7.98;100.00
36190;BME280;22232;50.914;13.858;2023-03-26T06:56:42;96731.34;;;8.01;100.00
36190;BME280;22232;50.914;13.858;2023-03-26T06:59:37;96732.88;;;7.97;100.00
36190;BME280;22232;50.914;13.858;2023-03-26T07:02:23;96731.25;;;7.96;100.00
36190;BME280;22232;50.914;13.858;2023-03-26T07:05:09;96725.47;;;7.99;100.00
36190;BME280;22232;50.914;13.858;2023-03-26T07:07:55;96731.34;;;8.01;100.00
36190;BME280;22232;50.914;13.858;2023-03-26T07:10:42;96734.31;;;8.05;100.00
36190;BME280;22232;50.914;13.858;2023-03-26T07:13:28;96731.44;;;8.07;100.00
36190;BME280;22232;50.914;13.858;2023-03-26T07:16:22;96733.34;;;8.11;100.00
36190;BME280;22232;50.914;13.858;2023-03-26T07:19:22;96730.88;;;8.04;100.00
36190;BME280;22232;50.914;13.858;2023-03-26T07:21:51;96728.38;;;8.15;100.00
36190;BME280;22232;50.914;13.858;2023-03-26T07:24:37;96725.41;;;8.28;100.00
36190;BME280;22232;50.914;13.858;2023-03-26T07:33:15;96736.03;;;8.28;100.00
36190;BME280;22232;50.914;13.858;2023-03-26T07:48:23;96721.34;;;8.09;100.00
36190;BME280;22232;50.914;13.858;2023-03-26T07:51:15;96731.09;;;8.20;100.00
36190;BME280;22232;50.914;13.858;2023-03-26T07:54:09;96722.75;;;8.28;100.00
36190;BME280;22232;50.914;13.858;2023-03-26T07:57:05;96731.84;;;8.32;100.00
36190;BME280;22232;50.914;13.858;2023-03-26T08:00:00;96725.66;;;8.43;100.00
36190;BME280;22232;50.914;13.858;2023-03-26T08:06:18;96716.13;;;8.64;100.00
36190;BME280;22232;50.914;13.858;2023-03-26T08:11:59;96713.28;;;8.71;100.00
36190;BME280;22232;50.914;13.858;2023-03-26T08:20:06;96708.03;;;8.76;100.00
36190;BME280;22232;50.914;13.858;2023-03-26T08:22:41;96703.53;;;8.77;100.00
36190;BME280;22232;50.914;13.858;2023-03-26T08:25:18;96702.38;;;8.89;100.00
36190;BME280;22232;50.914;13.858;2023-03-26T08:30:39;96708.47;;;8.90;100.00
36190;BME280;22232;50.914;13.858;2023-03-26T08:33:20;96700.72;;;8.88;100.00
36190;BME280;22232;50.914;13.858;2023-03-26T08:35:49;96697.44;;;8.98;100.00
36190;BME280;22232;50.914;13.858;2023-03-26T08:38:18;96693.44;;;9.01;100.00
36190;BME280;22232;50.914;13.858;2023-03-26T08:41:08;96690.78;;;9.01;100.00
36190;BME280;22232;50.914;13.858;2023-03-26T08:46:44;96700.56;;;8.95;100.00
36190;BME280;22232;50.914;13.858;2023-03-26T09:12:13;96686.00;;;9.47;100.00
36190;BME280;22232;50.914;13.858;2023-03-26T09:20:17;96674.63;;;10.53;100.00
36190;BME280;22232;50.914;13.858;2023-03-26T09:37:16;96647.00;;;13.09;100.00
36190;BME280;22232;50.914;13.858;2023-03-26T09:46:14;96627.31;;;14.90;82.67
36190;BME280;22232;50.914;13.858;2023-03-26T09:49:21;96624.38;;;15.11;77.70
36190;BME280;22232;50.914;13.858;2023-03-26T09:55:12;96626.31;;;15.05;79.41
36190;BME280;22232;50.914;13.858;2023-03-26T10:00:48;96623.09;;;14.60;80.85
36190;BME280;22232;50.914;13.858;2023-03-26T10:06:11;96620.25;;;14.52;85.25
36190;BME280;22232;50.914;13.858;2023-03-26T10:09:12;96621.06;;;14.52;77.36
36190;BME280;22232;50.914;13.858;2023-03-26T10:14:57;96609.19;;;14.82;79.27
36190;BME280;22232;50.914;13.858;2023-03-26T10:17:41;96611.16;;;14.96;76.19
36190;BME280;22232;50.914;13.858;2023-03-26T10:26:27;96590.63;;;15.43;64.71
36190;BME280;22232;50.914;13.858;2023-03-26T10:29:13;96585.84;;;15.58;68.36
36190;BME280;22232;50.914;13.858;2023-03-26T10:40:06;96560.91;;;16.04;68.86
36190;BME280;22232;50.914;13.858;2023-03-26T10:42:48;96560.19;;;15.99;62.09
36190;BME280;22232;50.914;13.858;2023-03-26T10:48:19;96551.59;;;15.64;62.12
36190;BME280;22232;50.914;13.858;2023-03-26T10:53:48;96538.47;;;15.95;59.39
36190;BME280;22232;50.914;13.858;2023-03-26T10:56:25;96537.97;;;15.79;58.20
36190;BME280;22232;50.914;13.858;2023-03-26T10:58:55;96542.94;;;15.86;58.89
36190;BME280;22232;50.914;13.858;2023-03-26T11:06:43;96526.13;;;15.62;58.55
36190;BME280;22232;50.914;13.858;2023-03-26T11:09:41;96517.75;;;15.63;54.57
36190;BME280;22232;50.914;13.858;2023-03-26T11:15:07;96514.09;;;16.19;55.67
36190;BME280;22232;50.914;13.858;2023-03-26T11:23:06;96504.19;;;16.70;52.39
36190;BME280;22232;50.914;13.858;2023-03-26T11:25:54;96503.94;;;16.44;52.38
36190;BME280;22232;50.914;13.858;2023-03-26T11:28:56;96499.53;;;16.34;53.14
36190;BME280;22232;50.914;13.858;2023-03-26T11:37:40;96498.91;;;15.68;52.47
36190;BME280;22232;50.914;13.858;2023-03-26T11:40:49;96488.09;;;16.01;52.62
36190;BME280;22232;50.914;13.858;2023-03-26T11:44:22;96474.84;;;16.04;51.23
36190;BME280;22232;50.914;13.858;2023-03-26T11:46:55;96470.16;;;16.10;52.83
36190;BME280;22232;50.914;13.858;2023-03-26T11:49:28;96473.84;;;16.14;53.19
36190;BME280;22232;50.914;13.858;2023-03-26T11:51:55;96465.84;;;16.37;52.37
36190;BME280;22232;50.914;13.858;2023-03-26T11:54:23;96470.63;;;16.40;51.15
36190;BME280;22232;50.914;13.858;2023-03-26T11:56:57;96465.78;;;16.14;51.88
36190;BME280;22232;50.914;13.858;2023-03-26T11:59:42;96467.47;;;15.96;51.91
36190;BME280;22232;50.914;13.858;2023-03-26T12:02:37;96472.44;;;15.89;53.17
36190;BME280;22232;50.914;13.858;2023-03-26T12:05:23;96476.94;;;15.61;52.83
36190;BME280;22232;50.914;13.858;2023-03-26T12:08:00;96469.53;;;15.72;54.91
36190;BME280;22232;50.914;13.858;2023-03-26T12:10:38;96475.94;;;15.57;53.64
36190;BME280;22232;50.914;13.858;2023-03-26T12:15:49;96475.81;;;15.48;56.59
36190;BME280;22232;50.914;13.858;2023-03-26T12:18:22;96474.94;;;15.67;54.04
36190;BME280;22232;50.914;13.858;2023-03-26T12:21:14;96458.63;;;15.63;55.41
36190;BME280;22232;50.914;13.858;2023-03-26T12:26:33;96459.94;;;15.33;54.47
36190;BME280;22232;50.914;13.858;2023-03-26T12:31:53;96454.13;;;14.74;57.52
36190;BME280;22232;50.914;13.858;2023-03-26T12:34:33;96457.44;;;14.47;57.55
36190;BME280;22232;50.914;13.858;2023-03-26T12:37:03;96452.59;;;14.87;60.64
36190;BME280;22232;50.914;13.858;2023-03-26T12:39:41;96456.88;;;14.88;58.23
36190;BME280;22232;50.914;13.858;2023-03-26T12:42:31;96455.22;;;14.73;56.98
36190;BME280;22232;50.914;13.858;2023-03-26T12:45:37;96453.72;;;14.67;59.76
36190;BME280;22232;50.914;13.858;2023-03-26T12:48:06;96452.25;;;14.56;57.81
36190;BME280;22232;50.914;13.858;2023-03-26T12:56:22;96448.63;;;14.41;59.08
36190;BME280;22232;50.914;13.858;2023-03-26T12:59:43;96448.09;;;14.63;61.24
36190;BME280;22232;50.914;13.858;2023-03-26T13:05:55;96444.22;;;14.51;59.35
36190;BME280;22232;50.914;13.858;2023-03-26T13:10:53;96436.31;;;14.40;65.19
36190;BME280;22232;50.914;13.858;2023-03-26T13:19:20;96440.28;;;14.24;63.81
36190;BME280;22232;50.914;13.858;2023-03-26T13:24:30;96446.13;;;12.91;69.92
36190;BME280;22232;50.914;13.858;2023-03-26T13:27:04;96438.25;;;12.21;81.74
36190;BME280;22232;50.914;13.858;2023-03-26T13:35:39;96444.31;;;11.00;100.00
36190;BME280;22232;50.914;13.858;2023-03-26T13:41:27;96441.66;;;10.74;100.00
36190;BME280;22232;50.914;13.858;2023-03-26T13:46:40;96435.25;;;10.65;100.00
36190;BME280;22232;50.914;13.858;2023-03-26T13:49:12;96437.34;;;10.53;100.00
36190;BME280;22232;50.914;13.858;2023-03-26T13:52:01;96439.41;;;10.30;100.00
36190;BME280;22232;50.914;13.858;2023-03-26T13:59:53;96439.16;;;9.79;100.00
36190;BME280;22232;50.914;13.858;2023-03-26T14:02:32;96441.72;;;9.54;100.00
36190;BME280;22232;50.914;13.858;2023-03-26T14:08:00;96447.06;;;9.16;100.00
36190;BME280;22232;50.914;13.858;2023-03-26T14:10:36;96443.50;;;9.06;100.00
36190;BME280;22232;50.914;13.858;2023-03-26T14:13:17;96451.81;;;9.14;100.00
36190;BME280;22232;50.914;13.858;2023-03-26T14:35:40;96448.69;;;8.90;100.00
36190;BME280;22232;50.914;13.858;2023-03-26T14:41:22;96440.78;;;8.68;100.00
36190;BME280;22232;50.914;13.858;2023-03-26T14:44:16;96440.88;;;8.52;100.00
36190;BME280;22232;50.914;13.858;2023-03-26T14:47:09;96438.94;;;8.42;100.00
36190;BME280;22232;50.914;13.858;2023-03-26T14:52:45;96437.19;;;8.31;100.00
36190;BME280;22232;50.914;13.858;2023-03-26T14:55:48;96436.44;;;8.35;100.00
36190;BME280;22232;50.914;13.858;2023-03-26T15:01:22;96440.38;;;8.55;100.00
36190;BME280;22232;50.914;13.858;2023-03-26T15:04:23;96435.41;;;8.58;100.00
36190;BME280;22232;50.914;13.858;2023-03-26T15:16:07;96421.06;;;8.37;100.00
36190;BME280;22232;50.914;13.858;2023-03-26T15:25:04;96420.84;;;8.39;100.00
36190;BME280;22232;50.914;13.858;2023-03-26T15:27:49;96427.41;;;8.36;100.00
36190;BME280;22232;50.914;13.858;2023-03-26T15:44:28;96413.13;;;8.15;100.00
36190;BME280;22232;50.914;13.858;2023-03-26T15:52:58;96409.03;;;8.30;100.00
36190;BME280;22232;50.914;13.858;2023-03-26T15:58:24;96413.25;;;8.25;100.00
36190;BME280;22232;50.914;13.858;2023-03-26T16:03:46;96410.16;;;8.12;100.00
36190;BME280;22232;50.914;13.858;2023-03-26T16:08:57;96418.69;;;8.14;100.00
36190;BME280;22232;50.914;13.858;2023-03-26T16:14:22;96412.13;;;7.94;100.00
36190;BME280;22232;50.914;13.858;2023-03-26T16:16:56;96413.16;;;7.93;100.00
36190;BME280;22232;50.914;13.858;2023-03-26T16:19:31;96414.28;;;7.97;100.00
36190;BME280;22232;50.914;13.858;2023-03-26T16:22:05;96419.03;;;7.95;100.00
36190;BME280;22232;50.914;13.858;2023-03-26T16:24:36;96412.16;;;7.99;100.00
36190;BME280;22232;50.914;13.858;2023-03-26T16:27:29;96415.94;;;8.03;100.00
36190;BME280;22232;50.914;13.858;2023-03-26T16:30:15;96410.06;;;8.01;100.00
36190;BME280;22232;50.914;13.858;2023-03-26T16:32:53;96413.31;;;8.09;100.00
36190;BME280;22232;50.914;13.858;2023-03-26T16:35:40;96412.28;;;8.10;100.00
36190;BME280;22232;50.914;13.858;2023-03-26T16:38:14;96410.38;;;8.05;100.00
36190;BME280;22232;50.914;13.858;2023-03-26T16:41:04;96405.25;;;7.98;100.00
36190;BME280;22232;50.914;13.858;2023-03-26T16:46:45;96417.44;;;7.94;100.00
36190;BME280;22232;50.914;13.858;2023-03-26T16:55:01;96411.25;;;7.89;100.00
36190;BME280;22232;50.914;13.858;2023-03-26T16:57:44;96416.06;;;7.92;100.00
36190;BME280;22232;50.914;13.858;2023-03-26T17:05:36;96414.28;;;7.97;100.00
36190;BME280;22232;50.914;13.858;2023-03-26T17:08:15;96414.94;;;7.88;100.00
36190;BME280;22232;50.914;13.858;2023-03-26T17:26:15;96414.44;;;7.69;100.00
36190;BME280;22232;50.914;13.858;2023-03-26T17:28:58;96420.00;;;7.67;100.00
36190;BME280;22232;50.914;13.858;2023-03-26T17:31:39;96421.59;;;7.68;100.00
36190;BME280;22232;50.914;13.858;2023-03-26T17:37:00;96423.19;;;7.69;100.00
36190;BME280;22232;50.914;13.858;2023-03-26T17:42:10;96418.06;;;7.63;100.00
36190;BME280;22232;50.914;13.858;2023-03-26T17:47:49;96425.97;;;7.57;100.00
36190;BME280;22232;50.914;13.858;2023-03-26T17:50:26;96426.53;;;7.59;100.00
36190;BME280;22232;50.914;13.858;2023-03-26T17:52:59;96432.41;;;7.62;100.00
36190;BME280;22232;50.914;13.858;2023-03-26T17:55:30;96433.19;;;7.62;100.00
36190;BME280;22232;50.914;13.858;2023-03-26T17:58:00;96430.53;;;7.62;100.00
36190;BME280;22232;50.914;13.858;2023-03-26T18:03:00;96430.53;;;7.62;100.00
36190;BME280;22232;50.914;13.858;2023-03-26T18:05:29;96432.41;;;7.62;100.00
36190;BME280;22232;50.914;13.858;2023-03-26T18:16:14;96447.06;;;7.47;100.00
36190;BME280;22232;50.914;13.858;2023-03-26T18:18:50;96449.97;;;7.46;100.00
36190;BME280;22232;50.914;13.858;2023-03-26T18:23:51;96448.69;;;7.31;100.00
36190;BME280;22232;50.914;13.858;2023-03-26T18:26:22;96442.81;;;7.29;100.00
36190;BME280;22232;50.914;13.858;2023-03-26T18:29:20;96442.91;;;7.18;100.00
36190;BME280;22232;50.914;13.858;2023-03-26T18:34:26;96444.34;;;7.08;100.00
36190;BME280;22232;50.914;13.858;2023-03-26T18:39:29;96443.47;;;7.03;100.00
36190;BME280;22232;50.914;13.858;2023-03-26T18:41:56;96441.06;;;7.01;100.00
36190;BME280;22232;50.914;13.858;2023-03-26T18:44:25;96435.88;;;7.06;100.00
36190;BME280;22232;50.914;13.858;2023-03-26T18:46:53;96443.72;;;7.01;100.00
36190;BME280;22232;50.914;13.858;2023-03-26T18:49:22;96439.00;;;7.03;100.00
36190;BME280;22232;50.914;13.858;2023-03-26T18:51:52;96436.66;;;7.07;100.00
36190;BME280;22232;50.914;13.858;2023-03-26T18:54:26;96435.38;;;7.09;100.00
36190;BME280;22232;50.914;13.858;2023-03-26T18:57:07;96442.28;;;7.10;100.00
36190;BME280;22232;50.914;13.858;2023-03-26T18:59:42;96436.97;;;7.10;100.00
36190;BME280;22232;50.914;13.858;2023-03-26T19:02:12;96439.63;;;7.10;100.00
36190;BME280;22232;50.914;13.858;2023-03-26T19:04:41;96434.00;;;7.07;100.00
36190;BME280;22232;50.914;13.858;2023-03-26T19:07:15;96424.69;;;7.04;100.00
36190;BME280;22232;50.914;13.858;2023-03-26T19:09:45;96422.03;;;7.04;100.00
36190;BME280;22232;50.914;13.858;2023-03-26T19:12:20;96425.47;;;7.05;100.00
36190;BME280;22232;50.914;13.858;2023-03-26T19:14:53;96420.44;;;7.03;100.00
36190;BME280;22232;50.914;13.858;2023-03-26T19:17:23;96422.53;;;7.01;100.00
36190;BME280;22232;50.914;13.858;2023-03-26T19:19:54;96424.13;;;6.85;100.00
36190;BME280;22232;50.914;13.858;2023-03-26T19:22:24;96422.94;;;6.76;100.00
36190;BME280;22232;50.914;13.858;2023-03-26T19:24:56;96416.09;;;6.80;100.00